Oeiras, Brazil
Current Conditions -  °F | °C
As of 10:00 AM on Sunday 23 Nov 2014 (Local Time) from SBTE Reporting Station
Few Clouds Few Clouds  
Wind Chill: 88°   Ceiling: Unl
Heat Index: 90°   Visibility: 6mi
Dew Point: 66°   Wind: 8mph
Humidity: 49%   Direction: 70°ENE
Pressure: 29.88"   Gusts: NA
Location:  7.03°S, 42.13°W
Report Text: SBTE 231300Z 07007KT 9999 FEW030 31/19 Q1012
Loading
Personal Weather Stations






























Interactive Weather Map New forecast layout! Learn more

10-Day Weather Forecast

Advertisements
Track Severe Weather on mobile